Time;durP1;ratioP1;P1;durP2;ratioP2;P2;SDS_P1;SDS_P2;PMS_P1;PMS_P2;Temp;Humidity;BMP_temperature;BMP_pressure;BME280_temperature;BME280_humidity;BME280_pressure;Samples;Min_cycle;Max_cycle;Signal;HPM_P1;HPM_P2
2021/12/03 00:02:09;;;;;;;18.52;4.72;;;2.20;99.90;;;;;;5084445;28;20388;-77
2021/12/03 00:04:34;;;;;;;12.30;4.43;;;2.30;99.90;;;;;;5085457;28;20060;-77
2021/12/03 00:07:00;;;;;;;10.52;4.75;;;2.30;99.90;;;;;;5089756;28;20008;-77
2021/12/03 00:09:26;;;;;;;20.25;5.03;;;2.30;99.90;;;;;;5111893;28;20029;-77
2021/12/03 00:11:52;;;;;;;14.70;4.65;;;2.30;99.90;;;;;;5094236;28;20040;-77
2021/12/03 00:14:17;;;;;;;10.50;4.40;;;2.40;99.90;;;;;;5102820;28;20062;-77
2021/12/03 00:16:43;;;;;;;13.27;4.35;;;2.30;99.90;;;;;;5093515;28;20024;-76
2021/12/03 00:19:08;;;;;;;12.52;4.32;;;2.30;99.90;;;;;;5109383;28;20024;-78
2021/12/03 00:21:37;;;;;;;11.77;4.40;;;2.40;99.90;;;;;;5102801;28;20062;-77
2021/12/03 00:24:03;;;;;;;13.27;4.43;;;2.30;99.90;;;;;;5083059;28;20020;-77
2021/12/03 00:26:28;;;;;;;15.23;4.68;;;2.40;99.90;;;;;;5081773;28;20077;-76
2021/12/03 00:28:54;;;;;;;16.17;4.68;;;2.30;99.90;;;;;;5081075;28;20020;-76
2021/12/03 00:31:19;;;;;;;15.48;4.43;;;2.40;99.90;;;;;;5084977;28;20473;-76
2021/12/03 00:33:45;;;;;;;13.75;4.25;;;2.30;99.90;;;;;;5102989;28;20039;-77
2021/12/03 00:36:11;;;;;;;15.00;4.45;;;2.30;99.90;;;;;;5105940;28;20016;-78
2021/12/03 00:38:43;;;;;;;18.23;4.10;;;2.40;99.90;;;;;;5104455;28;20024;-77
2021/12/03 00:41:15;;;;;;;16.40;4.53;;;2.40;99.90;;;;;;5106852;28;20028;-77
2021/12/03 00:43:44;;;;;;;10.20;3.30;;;2.40;99.90;;;;;;5088150;28;20024;-77
2021/12/03 00:46:12;;;;;;;9.55;3.42;;;2.50;99.90;;;;;;5104340;28;20070;-77
2021/12/03 00:48:38;;;;;;;14.00;3.65;;;2.50;99.90;;;;;;5083826;28;20028;-77
2021/12/03 00:51:05;;;;;;;14.35;3.67;;;2.50;99.90;;;;;;5081707;28;20086;-78
2021/12/03 00:53:31;;;;;;;15.50;3.28;;;2.50;99.90;;;;;;5104154;28;20020;-77
2021/12/03 00:55:56;;;;;;;7.63;2.80;;;2.50;99.90;;;;;;5103924;28;20453;-78
2021/12/03 00:58:22;;;;;;;11.68;3.28;;;2.50;99.90;;;;;;5099969;28;20028;-77
2021/12/03 01:00:48;;;;;;;6.57;2.60;;;2.50;99.90;;;;;;5100923;28;20392;-78
2021/12/03 01:03:14;;;;;;;6.75;2.35;;;2.50;99.90;;;;;;5102225;28;20028;-78
2021/12/03 01:05:39;;;;;;;6.88;2.55;;;2.50;99.90;;;;;;5083958;28;20081;-76
2021/12/03 01:08:05;;;;;;;7.15;2.35;;;2.50;99.90;;;;;;5101718;28;20057;-78
2021/12/03 01:10:31;;;;;;;13.55;2.67;;;2.50;99.90;;;;;;5101838;28;20024;-78
2021/12/03 01:12:57;;;;;;;12.40;2.78;;;2.50;99.90;;;;;;5102887;28;20024;-78
2021/12/03 01:15:27;;;;;;;13.20;2.33;;;2.40;99.90;;;;;;5103464;28;20032;-78
2021/12/03 01:17:52;;;;;;;9.00;2.22;;;2.50;99.90;;;;;;5102610;28;20016;-76
2021/12/03 01:20:19;;;;;;;6.45;2.33;;;2.50;99.90;;;;;;5100677;28;20024;-77
2021/12/03 01:22:47;;;;;;;9.40;1.98;;;2.50;99.90;;;;;;5100735;28;20427;-77
2021/12/03 01:25:14;;;;;;;9.05;2.30;;;2.50;99.90;;;;;;5100564;28;20020;-77
2021/12/03 01:27:41;;;;;;;11.48;2.45;;;2.40;99.90;;;;;;5100005;28;20020;-77
2021/12/03 01:30:09;;;;;;;7.20;2.38;;;2.50;99.90;;;;;;5082739;28;20032;-77
2021/12/03 01:32:35;;;;;;;9.18;2.10;;;2.50;99.90;;;;;;5101391;28;20016;-78
2021/12/03 01:35:02;;;;;;;9.55;2.53;;;2.50;99.90;;;;;;5100896;28;20021;-78
2021/12/03 01:37:27;;;;;;;14.07;2.58;;;2.50;99.90;;;;;;5113146;28;20023;-77
2021/12/03 01:39:53;;;;;;;14.82;2.75;;;2.50;99.90;;;;;;5101490;28;20034;-76
2021/12/03 01:42:19;;;;;;;13.98;2.40;;;2.50;99.90;;;;;;5119352;28;20036;-76
2021/12/03 01:44:44;;;;;;;17.83;2.70;;;2.60;99.90;;;;;;5100514;28;20028;-78
2021/12/03 01:47:10;;;;;;;6.25;2.20;;;2.60;99.90;;;;;;5117096;28;20051;-76
2021/12/03 01:49:35;;;;;;;15.07;2.88;;;2.60;99.90;;;;;;5117288;28;20104;-77
2021/12/03 01:52:01;;;;;;;9.43;2.53;;;2.60;99.90;;;;;;5097251;28;20024;-77
2021/12/03 01:54:26;;;;;;;9.32;2.90;;;2.60;99.90;;;;;;5083652;28;20227;-79
2021/12/03 01:56:52;;;;;;;11.25;2.95;;;2.60;99.90;;;;;;5092152;28;20024;-77
2021/12/03 01:59:18;;;;;;;13.07;3.10;;;2.60;99.90;;;;;;5117391;28;20040;-78
2021/12/03 02:01:43;;;;;;;9.30;3.22;;;2.60;99.90;;;;;;5103180;28;20112;-77
2021/12/03 02:04:09;;;;;;;11.55;3.80;;;2.70;99.90;;;;;;5104558;28;20020;-77
2021/12/03 02:06:37;;;;;;;10.52;3.67;;;2.60;99.90;;;;;;5108541;28;20024;-78
2021/12/03 02:09:03;;;;;;;10.88;3.42;;;2.50;99.90;;;;;;5099870;28;20024;-77
2021/12/03 02:11:29;;;;;;;10.15;3.65;;;2.50;99.90;;;;;;5099019;28;20023;-78
2021/12/03 02:13:54;;;;;;;11.65;3.47;;;2.50;99.90;;;;;;5106511;28;20024;-78
2021/12/03 02:16:21;;;;;;;13.93;4.40;;;2.50;99.90;;;;;;5106981;28;20025;-78
2021/12/03 02:18:47;;;;;;;14.10;3.90;;;2.50;99.90;;;;;;5106507;28;20028;-77
2021/12/03 02:21:14;;;;;;;18.15;4.05;;;2.40;99.90;;;;;;5085962;28;20028;-77
2021/12/03 02:23:41;;;;;;;13.50;3.63;;;2.50;99.90;;;;;;5107541;28;20024;-77
2021/12/03 02:26:06;;;;;;;10.70;3.95;;;2.40;99.90;;;;;;5102264;28;20081;-77
2021/12/03 02:28:35;;;;;;;12.77;4.03;;;2.40;99.90;;;;;;5091285;28;20016;-76
2021/12/03 02:31:01;;;;;;;9.25;3.53;;;2.50;99.90;;;;;;5100638;28;20028;-77
2021/12/03 02:33:27;;;;;;;10.10;3.75;;;2.40;99.90;;;;;;5097133;28;20084;-77
2021/12/03 02:35:53;;;;;;;9.52;2.92;;;2.50;99.90;;;;;;5100383;28;20016;-76
2021/12/03 02:38:22;;;;;;;15.80;3.55;;;2.50;99.90;;;;;;5117869;28;20019;-76
2021/12/03 02:40:48;;;;;;;9.57;3.40;;;2.60;99.90;;;;;;5117752;28;20067;-77
2021/12/03 02:43:14;;;;;;;13.45;3.75;;;2.60;99.90;;;;;;5092743;28;20028;-77
2021/12/03 02:45:40;;;;;;;14.07;3.60;;;2.50;99.90;;;;;;5084116;28;20008;-76
2021/12/03 02:48:06;;;;;;;11.93;3.55;;;2.60;99.90;;;;;;5090034;28;20135;-77
2021/12/03 02:50:32;;;;;;;11.82;3.22;;;2.60;99.90;;;;;;5099676;23;20064;-74
2021/12/03 02:52:58;;;;;;;12.95;2.92;;;2.70;99.90;;;;;;5082567;28;20028;-76
2021/12/03 02:55:24;;;;;;;14.32;3.33;;;2.70;99.90;;;;;;5086821;28;20016;-78
2021/12/03 02:57:50;;;;;;;8.63;3.30;;;2.70;99.90;;;;;;5097002;28;20024;-77
2021/12/03 03:00:19;;;;;;;12.43;2.83;;;2.70;99.90;;;;;;5098113;28;20029;-77
2021/12/03 03:02:45;;;;;;;10.95;2.85;;;2.70;99.90;;;;;;5097309;28;20012;-78
2021/12/03 03:05:12;;;;;;;14.18;2.72;;;2.70;99.90;;;;;;5097505;28;20040;-76
2021/12/03 03:07:39;;;;;;;8.60;2.30;;;2.60;99.90;;;;;;5096222;28;20019;-76
2021/12/03 03:10:09;;;;;;;6.57;2.70;;;2.60;99.90;;;;;;5096716;28;20036;-76
2021/12/03 03:12:35;;;;;;;10.45;2.17;;;2.60;99.90;;;;;;5088963;28;20020;-75
2021/12/03 03:15:01;;;;;;;13.88;2.45;;;2.60;99.90;;;;;;5072237;28;20024;-75
2021/12/03 03:17:29;;;;;;;11.85;2.28;;;2.70;99.90;;;;;;5071918;28;20052;-74
2021/12/03 03:19:55;;;;;;;10.55;2.40;;;2.70;99.90;;;;;;5072138;28;20055;-75
2021/12/03 03:22:22;;;;;;;9.93;2.50;;;2.70;99.90;;;;;;5072354;28;20028;-76
2021/12/03 03:24:49;;;;;;;6.15;2.13;;;2.80;99.90;;;;;;5072477;28;20025;-74
2021/12/03 03:27:15;;;;;;;11.20;3.40;;;2.80;99.90;;;;;;5072052;28;20024;-76
2021/12/03 03:29:44;;;;;;;13.98;3.70;;;2.70;99.90;;;;;;5072099;28;20021;-76
2021/12/03 03:32:10;;;;;;;13.68;3.53;;;2.70;99.90;;;;;;5072433;28;20021;-76
2021/12/03 03:34:36;;;;;;;8.55;3.80;;;2.70;99.90;;;;;;5072966;28;20017;-75
2021/12/03 03:37:01;;;;;;;7.13;3.65;;;2.70;99.90;;;;;;5077470;28;20067;-74
2021/12/03 03:39:27;;;;;;;18.83;4.50;;;2.70;99.90;;;;;;5071919;28;20350;-75
2021/12/03 03:41:53;;;;;;;9.27;4.22;;;2.60;99.90;;;;;;5078906;28;20024;-75
2021/12/03 03:44:19;;;;;;;9.32;4.05;;;2.60;99.90;;;;;;5076491;28;20028;-75
2021/12/03 03:46:48;;;;;;;12.43;4.72;;;2.60;99.90;;;;;;5086784;28;20036;-77
2021/12/03 03:49:14;;;;;;;10.98;5.03;;;2.60;99.90;;;;;;5088367;28;20021;-75
2021/12/03 03:51:40;;;;;;;12.40;5.10;;;2.60;99.90;;;;;;5087994;28;20025;-76
2021/12/03 03:54:06;;;;;;;16.42;4.88;;;2.50;99.90;;;;;;5084959;28;20020;-75
2021/12/03 03:56:32;;;;;;;17.60;5.40;;;2.50;99.90;;;;;;5080823;28;20366;-75
2021/12/03 03:58:57;;;;;;;15.55;5.22;;;2.50;99.90;;;;;;5082545;28;20017;-76
2021/12/03 04:01:23;;;;;;;15.82;4.93;;;2.50;99.90;;;;;;5084307;28;20017;-77
2021/12/03 04:03:49;;;;;;;11.45;4.43;;;2.60;99.90;;;;;;5082860;28;20025;-76
2021/12/03 04:06:16;;;;;;;13.68;4.93;;;2.60;99.90;;;;;;5083415;28;20500;-74
2021/12/03 04:08:42;;;;;;;13.98;5.43;;;2.60;99.90;;;;;;5079862;28;20107;-75
2021/12/03 04:11:08;;;;;;;17.27;5.53;;;2.70;99.90;;;;;;5077780;28;20029;-76
2021/12/03 04:13:33;;;;;;;13.60;5.57;;;2.60;99.90;;;;;;5077380;28;20066;-76
2021/12/03 04:15:59;;;;;;;20.13;6.20;;;2.60;99.90;;;;;;5076016;28;20516;-76
2021/12/03 04:18:25;;;;;;;20.85;7.13;;;2.60;99.90;;;;;;5076716;28;20024;-75
2021/12/03 04:20:50;;;;;;;16.27;6.35;;;2.50;99.90;;;;;;5074864;28;20025;-76
2021/12/03 04:23:18;;;;;;;12.70;5.18;;;2.60;99.90;;;;;;5075877;28;20029;-77
2021/12/03 04:25:44;;;;;;;19.80;5.57;;;2.60;99.90;;;;;;5075566;28;20055;-77
2021/12/03 04:28:10;;;;;;;10.43;4.85;;;2.60;99.90;;;;;;5076873;28;20020;-77
2021/12/03 04:30:35;;;;;;;13.85;5.72;;;2.50;99.90;;;;;;5075786;28;20436;-77
2021/12/03 04:33:02;;;;;;;15.10;5.82;;;2.50;99.90;;;;;;5077693;28;20028;-74
2021/12/03 04:35:28;;;;;;;15.68;5.30;;;2.50;99.90;;;;;;5077398;28;20027;-78
2021/12/03 04:37:54;;;;;;;10.95;5.70;;;2.50;99.90;;;;;;5077152;28;20076;-76
2021/12/03 04:40:21;;;;;;;12.73;5.22;;;2.50;99.90;;;;;;5077100;28;20032;-77
2021/12/03 04:42:47;;;;;;;11.90;5.10;;;2.50;99.90;;;;;;5085387;28;20028;-80
2021/12/03 04:45:17;;;;;;;12.90;6.07;;;2.50;99.90;;;;;;5089548;28;20025;-82
2021/12/03 04:47:42;;;;;;;13.65;5.70;;;2.60;99.90;;;;;;5095744;28;20000;-81
2021/12/03 04:50:10;;;;;;;14.98;6.32;;;2.70;99.90;;;;;;5090853;28;20499;-83
2021/12/03 04:52:36;;;;;;;11.52;5.03;;;2.60;99.90;;;;;;5086850;28;20031;-84
2021/12/03 04:55:02;;;;;;;14.23;5.15;;;2.60;99.90;;;;;;5084985;28;20111;-77
2021/12/03 04:57:28;;;;;;;22.55;5.88;;;2.60;99.90;;;;;;5085161;28;20024;-76
2021/12/03 04:59:53;;;;;;;18.50;5.57;;;2.60;99.90;;;;;;5081465;28;20031;-77
2021/12/03 05:02:21;;;;;;;13.43;5.00;;;2.60;99.90;;;;;;5076044;28;20078;-77
2021/12/03 05:04:48;;;;;;;15.55;5.60;;;2.60;99.90;;;;;;5075486;28;20030;-77
2021/12/03 05:07:57;;;;;;;19.80;5.57;;;2.60;99.90;;;;;;5075871;28;20123;-77
2021/12/03 05:10:03;;;;;;;17.10;5.20;;;2.60;99.90;;;;;;5082575;28;20063;-76
2021/12/03 05:12:29;;;;;;;11.95;4.90;;;2.50;99.90;;;;;;5099030;28;20038;-75
2021/12/03 05:14:54;;;;;;;17.35;5.80;;;2.50;99.90;;;;;;5094822;28;20120;-76
2021/12/03 05:17:21;;;;;;;16.58;5.07;;;2.60;99.90;;;;;;5085433;28;20024;-75
2021/12/03 05:19:46;;;;;;;14.15;5.05;;;2.60;99.90;;;;;;5083704;28;20025;-76
2021/12/03 05:22:13;;;;;;;19.08;4.63;;;2.70;99.90;;;;;;5083953;28;20039;-76
2021/12/03 05:24:38;;;;;;;14.52;5.57;;;2.60;99.90;;;;;;5085747;28;20074;-78
2021/12/03 05:27:04;;;;;;;12.02;4.50;;;2.60;99.90;;;;;;5084841;28;20115;-76
2021/12/03 05:29:30;;;;;;;16.08;5.38;;;2.60;99.90;;;;;;5088462;28;20043;-75
2021/12/03 05:31:55;;;;;;;15.80;5.10;;;2.60;99.90;;;;;;5084657;28;20450;-77
2021/12/03 05:34:22;;;;;;;7.60;4.45;;;2.50;99.90;;;;;;5089851;28;20024;-77
2021/12/03 05:36:48;;;;;;;14.63;5.57;;;2.50;99.90;;;;;;5091832;28;20032;-76
2021/12/03 05:39:14;;;;;;;14.98;5.22;;;2.60;99.90;;;;;;5092828;28;20028;-76
2021/12/03 05:41:40;;;;;;;13.30;5.43;;;2.50;99.90;;;;;;5089974;28;20031;-76
2021/12/03 05:44:06;;;;;;;12.25;5.03;;;2.60;99.90;;;;;;5086269;28;20028;-77
2021/12/03 05:46:32;;;;;;;17.90;5.75;;;2.60;99.90;;;;;;5078899;28;20024;-78
2021/12/03 05:48:58;;;;;;;13.07;5.35;;;2.60;99.90;;;;;;5081815;28;20032;-76
2021/12/03 05:51:26;;;;;;;20.02;5.78;;;2.60;99.90;;;;;;5082568;28;20401;-76
2021/12/03 05:53:52;;;;;;;17.52;5.13;;;2.70;99.90;;;;;;5077263;28;20021;-77
2021/12/03 05:56:18;;;;;;;18.60;5.53;;;2.70;99.90;;;;;;5076570;28;20025;-76
2021/12/03 05:58:44;;;;;;;17.75;6.20;;;2.70;99.90;;;;;;5076524;28;20034;-76
2021/12/03 06:01:10;;;;;;;14.25;6.15;;;2.70;99.90;;;;;;5078497;28;20024;-77
2021/12/03 06:03:36;;;;;;;17.15;6.10;;;2.70;99.90;;;;;;5079560;28;20470;-77
2021/12/03 06:06:02;;;;;;;12.63;5.93;;;2.60;99.90;;;;;;5077569;28;20029;-77
2021/12/03 06:08:27;;;;;;;16.13;6.20;;;2.70;99.90;;;;;;5076858;28;20081;-76
2021/12/03 06:10:53;;;;;;;15.15;6.80;;;2.70;99.90;;;;;;5079548;28;20028;-76
2021/12/03 06:13:18;;;;;;;17.77;7.35;;;2.60;99.90;;;;;;5080964;28;20016;-77
2021/12/03 06:15:44;;;;;;;14.05;6.07;;;2.60;99.90;;;;;;5080447;28;20020;-78
2021/12/03 06:18:10;;;;;;;15.07;6.22;;;2.70;99.90;;;;;;5081397;28;20050;-77
2021/12/03 06:20:35;;;;;;;15.32;6.10;;;2.70;99.90;;;;;;5084758;28;20393;-79
2021/12/03 06:23:01;;;;;;;18.65;5.95;;;2.60;99.90;;;;;;5081349;28;20025;-78
2021/12/03 06:25:27;;;;;;;14.45;6.45;;;2.60;99.90;;;;;;5076863;28;20059;-78
2021/12/03 06:27:56;;;;;;;13.52;6.00;;;2.60;99.90;;;;;;5074389;28;20221;-77
2021/12/03 06:30:23;;;;;;;17.00;6.53;;;2.60;99.90;;;;;;5077521;28;20023;-76
2021/12/03 06:32:48;;;;;;;12.52;6.10;;;2.60;99.90;;;;;;5074814;28;20028;-77
2021/12/03 06:35:16;;;;;;;17.17;6.32;;;2.60;99.90;;;;;;5078241;28;20071;-74
2021/12/03 06:37:42;;;;;;;17.70;6.85;;;2.60;99.90;;;;;;5074999;28;20059;-76
2021/12/03 06:40:12;;;;;;;20.70;6.40;;;2.60;99.90;;;;;;5072854;28;20024;-75
2021/12/03 06:42:37;;;;;;;16.83;7.45;;;2.60;99.90;;;;;;5074552;28;20035;-77
2021/12/03 06:45:05;;;;;;;12.20;5.80;;;2.70;99.90;;;;;;5075385;28;20247;-76
2021/12/03 06:47:31;;;;;;;17.55;6.35;;;2.70;99.90;;;;;;5072742;28;20020;-77
2021/12/03 06:49:57;;;;;;;15.88;7.40;;;2.60;99.90;;;;;;5073309;28;20055;-76
2021/12/03 06:52:24;;;;;;;17.92;6.95;;;2.50;99.90;;;;;;5073575;28;20038;-77
2021/12/03 06:54:57;;;;;;;19.70;9.40;;;2.60;99.90;;;;;;5073362;28;20021;-76
2021/12/03 06:57:23;;;;;;;14.15;6.93;;;2.60;99.90;;;;;;5074822;28;20074;-77
2021/12/03 06:59:49;;;;;;;19.40;6.72;;;2.60;99.90;;;;;;5073658;28;20412;-76
2021/12/03 07:02:14;;;;;;;14.68;6.28;;;2.60;99.90;;;;;;5075543;28;20058;-75
2021/12/03 07:04:40;;;;;;;21.52;6.82;;;2.60;99.90;;;;;;5075913;28;20524;-76
2021/12/03 07:07:07;;;;;;;16.77;7.57;;;2.60;99.90;;;;;;5075462;28;20032;-77
2021/12/03 07:09:32;;;;;;;22.90;6.63;;;2.50;99.90;;;;;;5084423;28;20024;-75
2021/12/03 07:11:58;;;;;;;24.85;7.00;;;2.50;99.90;;;;;;5094832;28;20593;-77
2021/12/03 07:14:24;;;;;;;20.88;6.38;;;2.50;99.90;;;;;;5084750;28;20104;-78
2021/12/03 07:16:50;;;;;;;15.73;5.93;;;2.50;99.90;;;;;;5076333;28;20036;-78
2021/12/03 07:19:15;;;;;;;27.02;6.40;;;2.50;99.90;;;;;;5081537;28;20029;-76
2021/12/03 07:21:41;;;;;;;17.20;6.35;;;2.50;99.90;;;;;;5079518;28;20032;-78
2021/12/03 07:24:07;;;;;;;13.88;6.47;;;2.60;99.90;;;;;;5080005;28;20028;-77
2021/12/03 07:26:33;;;;;;;16.23;7.10;;;2.60;99.90;;;;;;5076703;28;20045;-77
2021/12/03 07:28:58;;;;;;;28.08;7.57;;;2.50;99.90;;;;;;5079719;28;20021;-77
2021/12/03 07:31:25;;;;;;;16.55;7.22;;;2.50;99.90;;;;;;5080018;28;20028;-79
2021/12/03 07:33:53;;;;;;;20.55;7.65;;;2.50;99.90;;;;;;5079934;28;20020;-77
2021/12/03 07:36:19;;;;;;;18.02;7.10;;;2.50;99.90;;;;;;5076580;28;20030;-77
2021/12/03 07:38:45;;;;;;;23.27;7.32;;;2.50;99.90;;;;;;5076510;28;20033;-76
2021/12/03 07:41:10;;;;;;;20.25;7.80;;;2.50;99.90;;;;;;5076808;28;20090;-79
2021/12/03 07:43:36;;;;;;;26.95;8.50;;;2.50;99.90;;;;;;5077854;28;20338;-78
2021/12/03 07:46:02;;;;;;;26.42;8.73;;;2.50;99.90;;;;;;5077948;28;20035;-78
2021/12/03 07:48:28;;;;;;;26.98;8.90;;;2.40;99.90;;;;;;5074132;28;20039;-78
2021/12/03 07:50:56;;;;;;;18.80;8.02;;;2.40;99.90;;;;;;5078043;28;20135;-76
2021/12/03 07:53:22;;;;;;;21.63;9.02;;;2.50;99.90;;;;;;5077980;28;20104;-77
2021/12/03 07:55:49;;;;;;;22.52;8.57;;;2.60;99.90;;;;;;5075227;28;20112;-77
2021/12/03 07:58:16;;;;;;;21.13;8.30;;;2.70;99.90;;;;;;5076724;28;20021;-77
2021/12/03 08:00:43;;;;;;;22.90;8.85;;;2.60;99.90;;;;;;5076819;28;20031;-77
2021/12/03 08:03:08;;;;;;;20.45;8.73;;;2.60;99.90;;;;;;5077161;28;20077;-78
2021/12/03 08:05:34;;;;;;;21.17;8.02;;;2.60;99.90;;;;;;5073478;28;20491;-79
2021/12/03 08:08:00;;;;;;;20.88;8.65;;;2.60;99.90;;;;;;5076580;28;20089;-78
2021/12/03 08:10:27;;;;;;;19.23;8.40;;;2.50;99.90;;;;;;5076577;28;20021;-79
2021/12/03 08:12:53;;;;;;;25.02;8.95;;;2.50;99.90;;;;;;5077184;28;20016;-77
2021/12/03 08:15:18;;;;;;;18.45;9.73;;;2.60;99.90;;;;;;5076190;28;20032;-75
2021/12/03 08:17:48;;;;;;;20.35;8.98;;;2.60;99.90;;;;;;5078755;28;20050;-79
2021/12/03 08:20:15;;;;;;;16.17;8.30;;;2.60;99.90;;;;;;5078326;28;20443;-77
2021/12/03 08:22:41;;;;;;;19.30;8.65;;;2.60;99.90;;;;;;5076482;28;20024;-79
2021/12/03 08:25:08;;;;;;;17.35;9.15;;;2.60;99.90;;;;;;5083347;28;20028;-76
2021/12/03 08:27:34;;;;;;;22.05;9.98;;;2.60;99.90;;;;;;5086206;28;20056;-75
2021/12/03 08:29:59;;;;;;;19.38;9.48;;;2.70;99.90;;;;;;5084347;28;20021;-76
2021/12/03 08:32:25;;;;;;;24.02;9.13;;;2.70;99.90;;;;;;5084051;28;20025;-75
2021/12/03 08:34:50;;;;;;;16.98;8.70;;;2.70;99.90;;;;;;5081870;28;20377;-77
2021/12/03 08:37:16;;;;;;;28.65;9.32;;;2.80;99.90;;;;;;5080812;28;20039;-77
2021/12/03 08:39:42;;;;;;;22.92;9.52;;;2.80;99.90;;;;;;5084751;28;20080;-77
2021/12/03 08:42:09;;;;;;;22.92;9.40;;;2.80;99.90;;;;;;5082443;28;20070;-76
2021/12/03 08:44:35;;;;;;;18.27;9.52;;;2.90;99.90;;;;;;5079836;28;20084;-77
2021/12/03 08:47:04;;;;;;;15.32;8.93;;;2.90;99.90;;;;;;5083534;28;20078;-76
2021/12/03 08:49:33;;;;;;;18.10;9.73;;;2.90;99.90;;;;;;5076370;28;20025;-75
2021/12/03 08:54:52;;;;;;;22.58;9.82;;;3.10;99.90;;;;;;5088376;28;20032;-79
2021/12/03 08:57:22;;;;;;;17.85;9.50;;;3.30;99.90;;;;;;5073379;28;20131;-80
2021/12/03 08:59:52;;;;;;;18.95;9.90;;;3.90;99.90;;;;;;5070443;28;20037;-77
2021/12/03 09:02:17;;;;;;;20.98;9.18;;;4.50;99.90;;;;;;5079703;28;20032;-79
2021/12/03 09:04:43;;;;;;;16.15;8.65;;;5.10;99.90;;;;;;5062388;28;20033;-77
2021/12/03 09:07:09;;;;;;;20.40;9.40;;;5.70;99.90;;;;;;5069738;28;20021;-80
2021/12/03 09:09:35;;;;;;;20.08;8.60;;;6.10;99.90;;;;;;5091154;28;20031;-80
2021/12/03 09:12:01;;;;;;;15.18;8.95;;;6.40;99.90;;;;;;5066200;28;20029;-80
2021/12/03 09:17:00;;;;;;;18.65;9.73;;;7.00;99.90;;;;;;5091785;28;20082;-81
2021/12/03 09:19:34;;;;;;;17.63;8.65;;;7.00;99.90;;;;;;5082905;28;20446;-80
2021/12/03 09:22:00;;;;;;;18.55;9.18;;;6.80;99.90;;;;;;5066945;28;20021;-79
2021/12/03 09:24:32;;;;;;;23.40;10.15;;;6.50;99.90;;;;;;5077528;28;20033;-78
2021/12/03 09:26:58;;;;;;;20.95;10.05;;;6.00;99.90;;;;;;5079831;28;20035;-79
2021/12/03 09:29:30;;;;;;;18.73;10.27;;;5.40;99.90;;;;;;5090150;28;20025;-80
2021/12/03 09:31:57;;;;;;;25.58;11.38;;;5.10;99.90;;;;;;5083526;28;20017;-80
2021/12/03 09:34:24;;;;;;;22.50;13.38;;;4.80;99.90;;;;;;5083751;28;20110;-80
2021/12/03 09:36:50;;;;;;;22.80;13.18;;;4.60;99.90;;;;;;5082251;28;20013;-80
2021/12/03 09:39:22;;;;;;;21.85;13.43;;;4.50;99.90;;;;;;5082713;28;20084;-80
2021/12/03 09:41:50;;;;;;;22.75;14.38;;;4.40;99.90;;;;;;5064473;28;20021;-80
2021/12/03 09:44:16;;;;;;;25.73;15.32;;;4.30;99.90;;;;;;5063968;28;20029;-79
2021/12/03 09:46:43;;;;;;;31.13;15.88;;;4.20;99.90;;;;;;5082685;28;20027;-81
2021/12/03 09:49:23;;;;;;;31.35;16.23;;;4.20;99.90;;;;;;5085366;28;20075;-79
2021/12/03 09:57:12;;;;;;;31.23;18.73;;;4.00;99.90;;;;;;5083094;28;20476;-80
2021/12/03 10:00:07;;;;;;;34.33;19.08;;;3.80;99.90;;;;;;5084261;28;20035;-81
2021/12/03 10:02:58;;;;;;;35.75;20.27;;;3.80;99.90;;;;;;5085382;28;20048;-80
2021/12/03 10:16:48;;;;;;;40.42;21.65;;;3.80;99.90;;;;;;5082031;28;20025;-81
2021/12/03 10:19:00;;;;;;;45.90;23.67;;;3.70;99.90;;;;;;5078736;28;20032;-80
2021/12/03 10:33:02;;;;;;;46.45;25.17;;;3.50;99.90;;;;;;5067695;28;20031;-80
2021/12/03 10:35:52;;;;;;;47.97;27.08;;;3.40;99.90;;;;;;5100696;28;20027;-80
2021/12/03 10:38:28;;;;;;;52.05;27.27;;;3.40;99.90;;;;;;5100197;28;20552;-80
2021/12/03 10:41:16;;;;;;;45.33;25.40;;;3.40;99.90;;;;;;5082708;28;20058;-78
2021/12/03 11:06:04;;;;;;;60.97;30.27;;;3.60;99.90;;;;;;5109473;28;20024;-80
2021/12/03 11:19:31;;;;;;;59.17;27.45;;;3.60;99.90;;;;;;5115510;28;20035;-80
2021/12/03 11:25:26;;;;;;;57.25;28.83;;;3.60;99.90;;;;;;5109550;28;20035;-79
2021/12/03 11:39:08;;;;;;;64.50;29.88;;;3.60;99.90;;;;;;5101041;28;20035;-79
2021/12/03 11:45:01;;;;;;;66.65;31.65;;;3.60;99.90;;;;;;5114108;28;20049;-80
2021/12/03 11:50:56;;;;;;;72.63;31.35;;;3.60;99.90;;;;;;5103912;28;20058;-81
2021/12/03 13:12:42;;;;;;;82.00;33.45;;;4.00;99.90;;;;;;5100342;28;20028;-79
2021/12/03 13:15:36;;;;;;;81.38;31.15;;;4.10;99.90;;;;;;5091052;28;20036;-78
2021/12/03 13:23:26;;;;;;;80.57;31.65;;;4.20;99.90;;;;;;5092920;28;20488;-78
2021/12/03 13:26:46;;;;;;;81.72;33.35;;;4.20;99.90;;;;;;5088628;28;20024;-79
2021/12/03 14:34:44;;;;;;;83.38;31.45;;;3.80;99.90;;;;;;5082061;28;20690;-79
2021/12/03 14:37:16;;;;;;;80.30;32.70;;;3.90;99.90;;;;;;5083628;28;20027;-79
2021/12/03 14:39:58;;;;;;;79.60;30.65;;;3.80;99.90;;;;;;5082824;28;20444;-80
2021/12/03 14:45:03;;;;;;;84.63;32.97;;;3.70;99.90;;;;;;5082921;28;20104;-80
2021/12/03 14:55:36;;;;;;;83.32;33.30;;;3.70;99.90;;;;;;5081186;28;20066;-80
2021/12/03 14:58:08;;;;;;;70.32;30.65;;;3.70;99.90;;;;;;5079898;28;20546;-79
2021/12/03 15:03:23;;;;;;;82.25;35.40;;;3.60;99.90;;;;;;5082762;28;20084;-79
2021/12/03 15:06:20;;;;;;;74.97;30.80;;;3.70;99.90;;;;;;5082974;28;20084;-79
2021/12/03 15:22:29;;;;;;;67.20;26.80;;;3.50;99.90;;;;;;5088268;28;20393;-79
2021/12/03 15:32:52;;;;;;;58.75;26.20;;;3.40;99.90;;;;;;5035799;28;20048;-78
2021/12/03 15:35:21;;;;;;;60.42;25.23;;;3.30;99.90;;;;;;5019542;28;20036;-80
2021/12/03 16:08:16;;;;;;;33.38;16.35;;;3.20;99.90;;;;;;5088219;28;20035;-79
2021/12/03 16:21:52;;;;;;;30.85;14.60;;;3.40;99.90;;;;;;5088745;28;20035;-80
2021/12/03 16:46:54;;;;;;;34.07;13.73;;;3.50;99.90;;;;;;5120378;28;20060;-80
2021/12/03 16:52:06;;;;;;;31.73;13.47;;;3.50;99.90;;;;;;5121861;28;20046;-78
2021/12/03 16:56:57;;;;;;;23.90;12.77;;;3.50;99.90;;;;;;5120225;28;20032;-80
2021/12/03 16:59:24;;;;;;;23.80;12.73;;;3.60;99.90;;;;;;5121997;28;20388;-80
2021/12/03 17:01:58;;;;;;;24.55;12.38;;;3.60;99.90;;;;;;5123850;28;20020;-80
2021/12/03 17:10:00;;;;;;;28.23;12.57;;;3.60;99.90;;;;;;5119546;28;20039;-82
2021/12/03 17:15:13;;;;;;;25.70;12.45;;;3.60;99.90;;;;;;5120762;28;20024;-81
2021/12/03 17:44:30;;;;;;;19.00;9.20;;;3.60;99.90;;;;;;5121476;28;20031;-79
2021/12/03 17:58:03;;;;;;;25.52;12.57;;;3.80;99.90;;;;;;5111457;28;20028;-82
2021/12/03 18:03:34;;;;;;;25.70;13.57;;;3.80;99.90;;;;;;5114036;28;20031;-80
2021/12/03 18:08:46;;;;;;;29.40;13.60;;;3.80;99.90;;;;;;5117063;28;20061;-80
2021/12/03 18:49:08;;;;;;;26.45;12.95;;;4.30;99.90;;;;;;5099053;28;20031;-81
2021/12/03 18:51:41;;;;;;;18.48;13.40;;;4.20;99.90;;;;;;5097188;28;20083;-79
2021/12/03 18:54:23;;;;;;;21.70;13.87;;;4.30;99.90;;;;;;5106923;28;20020;-80
2021/12/03 18:56:52;;;;;;;26.45;14.73;;;4.30;99.90;;;;;;5100676;28;20107;-80
2021/12/03 18:59:19;;;;;;;21.65;13.73;;;4.20;99.90;;;;;;5103693;28;20012;-80
2021/12/03 19:01:45;;;;;;;21.08;13.82;;;4.20;99.90;;;;;;5117004;28;20020;-79
2021/12/03 19:04:25;;;;;;;21.67;12.95;;;4.30;99.90;;;;;;5104849;28;20040;-82
2021/12/03 19:09:27;;;;;;;;;;;4.30;99.90;;;;;;5110234;28;20095;-81
2021/12/03 19:12:00;;;;;;;19.35;13.40;;;4.30;99.90;;;;;;5113498;28;19904;-81
2021/12/03 19:14:26;;;;;;;19.60;13.55;;;4.30;99.90;;;;;;5112197;28;20131;-82
2021/12/03 19:16:52;;;;;;;20.13;14.30;;;4.40;99.90;;;;;;5111730;28;20051;-82
2021/12/03 19:19:18;;;;;;;21.15;14.05;;;4.40;99.90;;;;;;5105755;28;20605;-80
2021/12/03 19:21:46;;;;;;;19.95;13.25;;;4.40;99.90;;;;;;5113002;28;20035;-79
2021/12/03 19:24:14;;;;;;;22.63;12.35;;;4.40;99.90;;;;;;5114318;28;20027;-81
2021/12/03 19:26:45;;;;;;;25.65;13.80;;;4.60;99.90;;;;;;5108436;28;20058;-82
2021/12/03 19:29:17;;;;;;;21.02;12.68;;;4.40;99.90;;;;;;5110549;28;20019;-79
2021/12/03 19:31:47;;;;;;;23.15;13.45;;;4.50;99.90;;;;;;5118135;28;20072;-82
2021/12/03 19:34:13;;;;;;;20.70;13.05;;;4.50;99.90;;;;;;5112332;28;20016;-80
2021/12/03 19:36:43;;;;;;;18.08;11.60;;;4.50;99.90;;;;;;5099789;28;20028;-80
2021/12/03 19:39:11;;;;;;;19.00;12.23;;;4.50;99.90;;;;;;5100413;28;20028;-80
2021/12/03 19:41:43;;;;;;;21.58;14.32;;;4.50;99.90;;;;;;5105018;28;20485;-82
2021/12/03 19:44:16;;;;;;;15.77;11.82;;;4.50;99.90;;;;;;5104381;28;20028;-81
2021/12/03 19:46:46;;;;;;;18.55;12.98;;;4.60;99.90;;;;;;5102368;28;20065;-80
2021/12/03 19:49:32;;;;;;;20.33;12.85;;;4.50;99.90;;;;;;5101751;28;20020;-80
2021/12/03 19:52:05;;;;;;;22.98;15.10;;;4.60;99.90;;;;;;5107293;28;20024;-80
2021/12/03 19:54:31;;;;;;;18.10;13.57;;;4.60;99.90;;;;;;5112964;28;20041;-82
2021/12/03 19:56:57;;;;;;;19.92;13.95;;;4.60;99.90;;;;;;5103452;28;20028;-81
2021/12/03 19:59:23;;;;;;;17.83;14.13;;;4.60;99.90;;;;;;5102226;28;20062;-81
2021/12/03 20:01:48;;;;;;;19.48;14.63;;;4.70;99.90;;;;;;5104554;28;20036;-82
2021/12/03 20:04:15;;;;;;;25.25;16.77;;;4.70;99.90;;;;;;5104777;28;20020;-82